Time;durP1;ratioP1;P1;durP2;ratioP2;P2;SDS_P1;SDS_P2;PMS_P1;PMS_P2;Temp;Humidity;BMP_temperature;BMP_pressure;BME280_temperature;BME280_humidity;BME280_pressure;Samples;Min_cycle;Max_cycle;Signal;HPM_P1;HPM_P2
2024/03/14 00:00:03;;;;;;;8.05;4.30;;;;;;;9.28;100.00;100217.53;4990024;28;20046;-76
2024/03/14 00:02:29;;;;;;;7.30;4.05;;;;;;;9.28;100.00;100214.75;4959397;28;20026;-76
2024/03/14 00:04:54;;;;;;;8.57;4.40;;;;;;;9.31;100.00;100214.16;4962237;28;20125;-76
2024/03/14 00:07:22;;;;;;;7.00;3.83;;;;;;;9.32;100.00;100212.22;4974334;28;20701;-76
2024/03/14 00:09:48;;;;;;;7.30;4.07;;;;;;;9.33;100.00;100214.72;4973740;28;20039;-76
2024/03/14 00:12:16;;;;;;;8.50;4.13;;;;;;;9.34;100.00;100210.81;4979336;28;20038;-76
2024/03/14 00:14:50;;;;;;;14.70;4.93;;;;;;;9.35;100.00;100211.63;4981258;28;20023;-76
2024/03/14 00:17:18;;;;;;;8.18;3.97;;;;;;;9.38;100.00;100198.00;4991938;28;20022;-76
2024/03/14 00:19:44;;;;;;;6.13;3.72;;;;;;;9.38;100.00;100194.41;4989159;28;20037;-76
2024/03/14 00:22:10;;;;;;;6.90;3.85;;;;;;;9.36;100.00;100191.94;4973231;28;20053;-77
2024/03/14 00:24:37;;;;;;;8.95;4.25;;;;;;;9.39;100.00;100187.78;4965853;28;20030;-76
2024/03/14 00:27:03;;;;;;;9.93;3.90;;;;;;;9.40;100.00;100186.63;4996979;28;20057;-76
2024/03/14 00:29:30;;;;;;;7.03;3.72;;;;;;;9.40;100.00;100186.63;4964432;28;20490;-76
2024/03/14 00:31:56;;;;;;;6.32;3.50;;;;;;;9.40;100.00;100183.88;4965249;28;20490;-76
2024/03/14 00:34:22;;;;;;;6.70;3.80;;;;;;;9.45;100.00;100183.00;4996975;28;20030;-76
2024/03/14 00:36:48;;;;;;;7.40;3.67;;;;;;;9.44;100.00;100176.59;4977329;28;20493;-76
2024/03/14 00:39:15;;;;;;;7.38;3.80;;;;;;;9.46;100.00;100177.13;4980364;28;20027;-76
2024/03/14 00:41:40;;;;;;;8.45;3.88;;;;;;;9.44;100.00;100171.06;4969369;28;20023;-76
2024/03/14 00:44:06;;;;;;;7.32;3.42;;;;;;;9.48;100.00;100165.78;4959558;28;20037;-76
2024/03/14 00:46:33;;;;;;;8.48;3.30;;;;;;;9.49;100.00;100167.41;4972514;28;20037;-76
2024/03/14 00:49:02;;;;;;;6.68;3.88;;;;;;;9.46;100.00;100173.53;4986833;28;20026;-76
2024/03/14 00:51:27;;;;;;;6.15;3.35;;;;;;;9.46;100.00;100177.13;4964578;28;20034;-76
2024/03/14 00:53:54;;;;;;;8.27;3.88;;;;;;;9.43;100.00;100163.88;4961893;28;20545;-76
2024/03/14 00:56:20;;;;;;;6.85;3.30;;;;;;;9.44;100.00;100159.97;4956767;28;20061;-76
2024/03/14 00:58:47;;;;;;;5.68;3.45;;;;;;;9.48;100.00;100161.03;4979999;28;20081;-76
2024/03/14 01:01:13;;;;;;;6.85;3.38;;;;;;;9.46;100.00;100166.06;4963872;28;20510;-76
2024/03/14 01:03:41;;;;;;;6.53;3.35;;;;;;;9.44;100.00;100161.91;4990680;28;20105;-76
2024/03/14 01:06:11;;;;;;;6.55;3.40;;;;;;;9.43;100.00;100169.41;4980125;28;20430;-76
2024/03/14 01:08:40;;;;;;;6.80;3.20;;;;;;;9.46;100.00;100168.81;4977259;28;20037;-76
2024/03/14 01:11:06;;;;;;;6.15;3.20;;;;;;;9.47;100.00;100161.31;4990332;28;20023;-76
2024/03/14 01:13:32;;;;;;;7.15;3.47;;;;;;;9.48;100.00;100160.22;4996227;28;20033;-76
2024/03/14 01:15:57;;;;;;;6.25;3.90;;;;;;;9.46;100.00;100154.97;4996008;28;20030;-76
2024/03/14 01:18:24;;;;;;;8.30;3.70;;;;;;;9.45;100.00;100147.78;4963782;28;20512;-76
2024/03/14 01:20:50;;;;;;;7.68;3.50;;;;;;;9.44;100.00;100148.06;4995790;28;20037;-76
2024/03/14 01:23:15;;;;;;;6.45;3.67;;;;;;;9.39;100.00;100147.00;4997019;28;20038;-76
2024/03/14 01:25:41;;;;;;;6.13;3.92;;;;;;;9.42;100.00;100145.59;4995288;28;20030;-73
2024/03/14 01:28:07;;;;;;;6.03;3.55;;;;;;;9.41;100.00;100135.63;5001211;28;20042;-73
2024/03/14 01:30:33;;;;;;;5.78;3.42;;;;;;;9.39;100.00;100135.94;4951554;28;20038;-73
2024/03/14 01:32:58;;;;;;;6.25;3.85;;;;;;;9.37;100.00;100138.16;4980399;28;20034;-73
2024/03/14 01:35:24;;;;;;;6.85;4.22;;;;;;;9.34;100.00;100132.38;4979514;28;20479;-73
2024/03/14 01:37:50;;;;;;;10.60;4.35;;;;;;;9.36;100.00;100135.66;5005970;28;20042;-73
2024/03/14 01:40:15;;;;;;;6.70;4.00;;;;;;;9.33;100.00;100131.56;4976383;28;20027;-73
2024/03/14 01:42:43;;;;;;;8.10;3.75;;;;;;;9.30;100.00;100126.59;4970978;28;20132;-73
2024/03/14 01:45:09;;;;;;;6.97;4.75;;;;;;;9.24;100.00;100122.22;4970179;28;20538;-73
2024/03/14 01:47:35;;;;;;;8.35;3.70;;;;;;;9.22;100.00;100120.88;4980017;28;20655;-73
2024/03/14 01:50:02;;;;;;;6.13;3.92;;;;;;;9.22;100.00;100120.88;4998630;28;20120;-73
2024/03/14 01:52:28;;;;;;;7.38;3.80;;;;;;;9.19;100.00;100119.50;4963236;28;20026;-73
2024/03/14 01:54:54;;;;;;;7.60;4.15;;;;;;;9.17;100.00;100114.28;4982169;28;20086;-75
2024/03/14 01:57:19;;;;;;;7.38;3.92;;;;;;;9.17;100.00;100100.44;4962108;28;20498;-76
2024/03/14 01:59:49;;;;;;;8.77;4.15;;;;;;;9.16;100.00;100097.94;4994848;28;20031;-76
2024/03/14 02:02:15;;;;;;;7.93;4.40;;;;;;;9.10;100.00;100094.41;5003074;28;20046;-76
2024/03/14 02:05:00;;;;;;;9.57;4.30;;;;;;;9.19;100.00;100094.56;4995265;28;20034;-76
2024/03/14 02:07:26;;;;;;;8.10;4.35;;;;;;;9.09;100.00;100092.75;4994949;28;20113;-76
2024/03/14 02:09:52;;;;;;;7.53;4.45;;;;;;;9.09;100.00;100087.22;4978750;28;20022;-76
2024/03/14 02:12:18;;;;;;;8.15;4.10;;;;;;;9.05;100.00;100086.16;4967076;28;20022;-76
2024/03/14 02:14:43;;;;;;;9.35;4.80;;;;;;;9.01;100.00;100087.88;4980243;28;20031;-76
2024/03/14 02:17:10;;;;;;;7.68;4.15;;;;;;;8.95;100.00;100086.28;5006444;28;20036;-76
2024/03/14 02:19:38;;;;;;;10.55;4.55;;;;;;;8.97;100.00;100077.66;4997199;28;20439;-75
2024/03/14 02:22:03;;;;;;;7.47;4.03;;;;;;;8.94;100.00;100081.84;5002079;28;20033;-76
2024/03/14 02:24:29;;;;;;;8.07;4.40;;;;;;;8.93;100.00;100075.47;4991565;28;20034;-76
2024/03/14 02:26:55;;;;;;;7.80;4.55;;;;;;;8.93;100.00;100083.78;4997349;28;20026;-76
2024/03/14 02:29:21;;;;;;;8.27;4.88;;;;;;;8.91;100.00;100091.59;4994467;28;20037;-76
2024/03/14 02:31:47;;;;;;;7.22;4.72;;;;;;;8.88;100.00;100080.25;4978424;28;20038;-76
2024/03/14 02:34:14;;;;;;;9.15;4.65;;;;;;;8.84;100.00;100080.03;4981381;28;20031;-76
2024/03/14 02:36:39;;;;;;;7.28;4.63;;;;;;;8.77;100.00;100081.47;4972619;28;20498;-76
2024/03/14 02:39:05;;;;;;;7.68;4.72;;;;;;;8.74;100.00;100074.56;4962414;28;20062;-76
2024/03/14 02:41:31;;;;;;;8.02;4.13;;;;;;;8.72;100.00;100074.88;4994407;28;20034;-76
2024/03/14 02:43:57;;;;;;;7.80;4.10;;;;;;;8.70;100.00;100073.53;4993556;28;20038;-76
2024/03/14 02:46:23;;;;;;;6.88;4.18;;;;;;;8.67;100.00;100065.81;4985111;28;20093;-76
2024/03/14 02:48:48;;;;;;;7.00;4.88;;;;;;;8.63;100.00;100065.53;5001744;28;20038;-76
2024/03/14 02:51:14;;;;;;;6.88;4.70;;;;;;;8.61;100.00;100066.94;4994332;28;20030;-76
2024/03/14 02:53:39;;;;;;;8.02;4.85;;;;;;;8.62;100.00;100066.69;4998502;28;20040;-76
2024/03/14 02:56:08;;;;;;;9.52;4.63;;;;;;;8.60;100.00;100068.91;4952356;28;20479;-76
2024/03/14 02:58:36;;;;;;;7.82;4.80;;;;;;;8.59;100.00;100078.34;4975574;28;20034;-76
2024/03/14 03:01:03;;;;;;;7.60;4.15;;;;;;;8.56;100.00;100070.63;4994220;28;20050;-75
2024/03/14 03:03:29;;;;;;;9.30;5.00;;;;;;;8.51;100.00;100076.19;4969925;28;20038;-76
2024/03/14 03:05:54;;;;;;;6.93;4.28;;;;;;;8.54;100.00;100055.41;4978207;28;20367;-73
2024/03/14 03:08:20;;;;;;;10.32;5.25;;;;;;;8.52;100.00;100065.94;4998447;28;20029;-73
2024/03/14 03:10:46;;;;;;;7.38;4.68;;;;;;;8.43;100.00;100061.03;5004102;28;20026;-73
2024/03/14 03:13:11;;;;;;;8.25;4.88;;;;;;;8.46;100.00;100056.88;4995280;28;20149;-73
2024/03/14 03:15:37;;;;;;;7.60;4.63;;;;;;;8.41;100.00;100056.91;5010607;28;20034;-73
2024/03/14 03:18:02;;;;;;;9.90;4.38;;;;;;;8.37;100.00;100040.03;4974740;28;20026;-74
2024/03/14 03:20:28;;;;;;;9.35;4.68;;;;;;;8.36;100.00;100043.09;4988707;28;20026;-73
2024/03/14 03:23:09;;;;;;;11.45;5.03;;;;;;;8.34;100.00;100037.03;4984689;28;20468;-74
2024/03/14 03:25:35;;;;;;;6.97;4.65;;;;;;;8.33;100.00;100035.38;4969802;28;20034;-76
2024/03/14 03:28:03;;;;;;;8.15;4.10;;;;;;;8.32;100.00;100036.50;4977940;28;20033;-76
2024/03/14 03:30:29;;;;;;;8.70;4.47;;;;;;;8.30;100.00;100031.22;4978252;28;20033;-76
2024/03/14 03:32:54;;;;;;;8.55;4.25;;;;;;;8.27;100.00;100038.19;4972469;28;20034;-76
2024/03/14 03:35:21;;;;;;;7.45;3.80;;;;;;;8.23;100.00;100036.28;4951114;28;20030;-76
2024/03/14 03:37:49;;;;;;;7.50;4.20;;;;;;;8.27;100.00;100037.34;4982067;28;20018;-76
2024/03/14 03:40:21;;;;;;;8.60;4.15;;;;;;;8.23;100.00;100037.13;4984994;28;20034;-76
2024/03/14 03:42:47;;;;;;;7.80;4.45;;;;;;;8.21;100.00;100032.97;4988764;28;20042;-76
2024/03/14 03:45:13;;;;;;;7.03;4.22;;;;;;;8.23;100.00;100020.50;4996721;28;20037;-74
2024/03/14 03:47:39;;;;;;;7.97;4.70;;;;;;;8.16;100.00;100021.97;4960652;28;20042;-73
2024/03/14 03:50:08;;;;;;;7.15;4.13;;;;;;;8.18;100.00;100012.25;5005708;28;20038;-74
2024/03/14 03:52:33;;;;;;;6.15;4.20;;;;;;;8.17;100.00;100010.63;4974654;28;20034;-73
2024/03/14 03:54:59;;;;;;;8.63;4.13;;;;;;;8.13;100.00;100001.22;4982094;28;20030;-73
2024/03/14 03:57:25;;;;;;;7.65;4.82;;;;;;;8.17;100.00;100001.50;4989291;28;20038;-73
2024/03/14 03:59:51;;;;;;;10.68;4.75;;;;;;;8.11;100.00;100002.63;4978156;28;20085;-73
2024/03/14 04:02:18;;;;;;;7.50;5.10;;;;;;;8.09;100.00;100007.66;4995938;28;20060;-73
2024/03/14 04:04:44;;;;;;;9.90;5.03;;;;;;;8.07;100.00;100007.94;4979093;28;20057;-73
2024/03/14 04:07:14;;;;;;;8.80;4.80;;;;;;;8.03;100.00;100004.09;4969297;28;20390;-73
2024/03/14 04:09:44;;;;;;;7.78;4.85;;;;;;;8.03;100.00;100007.69;4986491;28;20022;-73
2024/03/14 04:12:11;;;;;;;9.65;4.70;;;;;;;8.07;100.00;100005.16;4993295;28;20026;-73
2024/03/14 04:14:40;;;;;;;10.75;5.55;;;;;;;8.02;100.00;100002.44;5008446;28;20033;-73
2024/03/14 04:17:07;;;;;;;11.95;6.00;;;;;;;7.97;100.00;99999.75;4987230;28;20042;-74
2024/03/14 04:19:33;;;;;;;9.40;5.03;;;;;;;7.96;100.00;99998.06;4979112;28;20044;-74
2024/03/14 04:21:58;;;;;;;8.55;4.80;;;;;;;7.98;100.00;99993.09;4990426;28;20039;-76
2024/03/14 04:24:25;;;;;;;10.40;5.53;;;;;;;7.92;100.00;99985.94;5000583;28;20045;-76
2024/03/14 04:26:51;;;;;;;11.52;5.15;;;;;;;7.97;100.00;99978.44;4973965;28;20038;-76
2024/03/14 04:29:16;;;;;;;9.30;5.20;;;;;;;7.89;100.00;99972.72;4999116;28;20471;-76
2024/03/14 04:31:42;;;;;;;9.50;5.68;;;;;;;7.94;100.00;99975.41;4991788;28;20033;-76
2024/03/14 04:34:09;;;;;;;8.88;5.22;;;;;;;7.89;100.00;99969.94;4982511;28;20034;-76
2024/03/14 04:36:37;;;;;;;9.38;5.57;;;;;;;7.91;100.00;99965.78;4972731;28;20035;-75
2024/03/14 04:39:08;;;;;;;7.88;5.57;;;;;;;7.87;100.00;99961.94;5005771;28;20029;-76
2024/03/14 04:41:35;;;;;;;8.98;5.15;;;;;;;7.88;100.00;99958.03;4996571;28;20038;-76
2024/03/14 04:44:03;;;;;;;8.60;5.25;;;;;;;7.85;100.00;99958.63;5000066;28;20018;-76
2024/03/14 04:46:29;;;;;;;11.85;5.20;;;;;;;7.83;100.00;99967.22;4974205;28;20379;-76
2024/03/14 04:48:56;;;;;;;11.05;5.72;;;;;;;7.81;100.00;99968.63;4987685;28;20037;-76
2024/03/14 04:51:22;;;;;;;8.80;5.18;;;;;;;7.84;100.00;99974.38;4985909;28;20023;-76
2024/03/14 04:53:47;;;;;;;9.88;5.13;;;;;;;7.77;100.00;99968.38;4975026;28;20097;-76
2024/03/14 04:56:13;;;;;;;15.25;5.35;;;;;;;7.78;100.00;99964.50;4980473;28;20049;-76
2024/03/14 04:58:38;;;;;;;8.88;4.80;;;;;;;7.77;100.00;99962.00;5012805;28;20093;-76
2024/03/14 05:01:04;;;;;;;8.60;5.05;;;;;;;7.75;100.00;99965.06;4995408;28;20069;-76
2024/03/14 05:03:30;;;;;;;8.65;5.18;;;;;;;7.75;100.00;99962.31;4956799;28;20042;-76
2024/03/14 05:05:56;;;;;;;11.15;5.25;;;;;;;7.74;100.00;99960.63;4967720;28;20394;-76
2024/03/14 05:08:22;;;;;;;8.15;5.22;;;;;;;7.73;100.00;99958.19;4954497;28;20026;-76
2024/03/14 05:10:48;;;;;;;12.80;5.68;;;;;;;7.70;100.00;99967.88;5004051;28;20113;-76
2024/03/14 05:13:13;;;;;;;9.18;5.70;;;;;;;7.68;100.00;99959.03;4989889;28;20034;-75
2024/03/14 05:15:39;;;;;;;8.52;5.03;;;;;;;7.66;100.00;99964.03;4971869;28;20506;-76
2024/03/14 05:18:05;;;;;;;8.55;5.18;;;;;;;7.69;100.00;99965.38;5001107;28;20022;-76
2024/03/14 05:20:31;;;;;;;8.30;4.68;;;;;;;7.64;100.00;99969.03;5005507;28;20058;-76
2024/03/14 05:22:57;;;;;;;10.80;5.10;;;;;;;7.62;100.00;99968.47;4975082;28;20037;-75
2024/03/14 05:25:23;;;;;;;8.15;4.80;;;;;;;7.64;100.00;99968.22;4976141;28;20518;-75
2024/03/14 05:27:50;;;;;;;9.70;4.85;;;;;;;7.59;100.00;99969.88;4996188;28;20042;-76
2024/03/14 05:30:17;;;;;;;9.00;4.72;;;;;;;7.65;100.00;99972.59;4995663;28;20041;-76
2024/03/14 05:32:44;;;;;;;11.07;5.00;;;;;;;7.59;100.00;99974.59;4992697;28;20501;-76
2024/03/14 05:35:11;;;;;;;7.20;4.70;;;;;;;7.59;100.00;99969.88;4963463;28;20030;-76
2024/03/14 05:37:36;;;;;;;8.50;4.25;;;;;;;7.56;100.00;99959.41;4966780;28;20026;-76
2024/03/14 05:40:02;;;;;;;8.98;5.20;;;;;;;7.54;100.00;99958.03;5005544;28;20118;-76
2024/03/14 05:42:28;;;;;;;11.02;4.82;;;;;;;7.51;100.00;99967.72;4974765;28;20487;-76
2024/03/14 05:44:56;;;;;;;8.02;4.88;;;;;;;7.54;100.00;99964.38;4951262;28;20026;-76
2024/03/14 05:47:21;;;;;;;8.07;4.68;;;;;;;7.51;100.00;99959.44;4974515;28;20434;-76
2024/03/14 05:49:47;;;;;;;9.02;4.40;;;;;;;7.48;100.00;99971.06;4954446;28;20053;-76
2024/03/14 05:52:12;;;;;;;8.25;4.50;;;;;;;7.49;100.00;99967.19;4977844;28;20034;-76
2024/03/14 05:54:38;;;;;;;9.68;4.85;;;;;;;7.48;100.00;99970.25;4996406;28;20556;-76
2024/03/14 05:57:04;;;;;;;8.52;4.50;;;;;;;7.46;100.00;99964.16;4967664;28;20030;-76
2024/03/14 05:59:30;;;;;;;7.38;4.30;;;;;;;7.46;100.00;99967.75;4978892;28;20030;-76
2024/03/14 06:01:56;;;;;;;6.55;4.32;;;;;;;7.43;100.00;99971.09;4979093;28;20391;-73
2024/03/14 06:04:22;;;;;;;8.20;4.68;;;;;;;7.40;100.00;99963.38;4994977;28;20037;-73
2024/03/14 06:06:51;;;;;;;7.80;4.10;;;;;;;7.42;100.00;99963.09;4995712;28;20030;-73
2024/03/14 06:09:17;;;;;;;6.72;4.53;;;;;;;7.39;100.00;99968.09;4991645;28;20025;-73
2024/03/14 06:11:42;;;;;;;5.78;3.78;;;;;;;7.37;100.00;99962.00;4979273;28;20034;-73
2024/03/14 06:14:08;;;;;;;8.25;4.05;;;;;;;7.37;100.00;99959.25;4991128;28;20041;-73
2024/03/14 06:16:34;;;;;;;6.88;4.45;;;;;;;7.35;100.00;99955.97;4995359;28;20113;-75
2024/03/14 06:18:59;;;;;;;8.98;4.55;;;;;;;7.32;100.00;99945.47;5007281;28;20036;-76
2024/03/14 06:21:24;;;;;;;7.88;4.00;;;;;;;7.38;100.00;99949.03;4984994;28;20033;-76
2024/03/14 06:23:51;;;;;;;7.50;4.50;;;;;;;7.33;100.00;99940.78;4985310;28;20390;-76
2024/03/14 06:26:16;;;;;;;8.50;4.25;;;;;;;7.35;100.00;99935.78;5007406;28;20081;-76
2024/03/14 06:28:42;;;;;;;8.75;5.05;;;;;;;7.31;100.00;99938.31;4957284;28;20053;-75
2024/03/14 06:31:08;;;;;;;9.82;4.90;;;;;;;7.35;100.00;99931.09;4969019;28;20022;-76
2024/03/14 06:33:33;;;;;;;9.60;5.13;;;;;;;7.41;100.00;99939.34;4998099;28;20026;-76
2024/03/14 06:35:59;;;;;;;7.85;4.75;;;;;;;7.44;100.00;99938.75;4952975;28;20058;-76
2024/03/14 06:38:25;;;;;;;7.80;5.03;;;;;;;7.48;100.00;99937.09;4987322;28;20383;-76
2024/03/14 06:40:54;;;;;;;8.57;5.25;;;;;;;7.49;100.00;99933.19;4999588;28;20057;-76
2024/03/14 06:43:22;;;;;;;6.75;4.60;;;;;;;7.51;100.00;99930.97;4970729;28;20027;-76
2024/03/14 06:45:50;;;;;;;9.32;4.60;;;;;;;7.53;100.00;99928.75;5005659;28;20039;-76
2024/03/14 06:48:17;;;;;;;7.90;4.55;;;;;;;7.56;100.00;99925.41;4978321;28;20414;-76
2024/03/14 06:50:44;;;;;;;6.95;4.53;;;;;;;7.55;100.00;99926.50;5001064;28;20106;-76
2024/03/14 06:53:10;;;;;;;6.90;4.57;;;;;;;7.57;100.00;99929.81;5002640;28;20038;-75
2024/03/14 06:55:35;;;;;;;7.15;4.25;;;;;;;7.61;100.00;99925.38;4978009;28;20030;-76
2024/03/14 06:58:01;;;;;;;8.15;4.63;;;;;;;7.65;100.00;99914.56;4978204;28;20053;-76
2024/03/14 07:00:27;;;;;;;7.78;4.70;;;;;;;7.70;100.00;99925.59;4991159;28;20050;-75
2024/03/14 07:02:52;;;;;;;9.40;4.82;;;;;;;7.75;100.00;99923.59;4955952;28;20561;-75
2024/03/14 07:05:19;;;;;;;8.45;4.90;;;;;;;7.82;100.00;99926.84;4991054;28;20045;-76
2024/03/14 07:07:45;;;;;;;9.48;4.90;;;;;;;7.87;100.00;99922.41;5007162;28;20030;-76
2024/03/14 07:10:13;;;;;;;6.85;4.35;;;;;;;7.95;100.00;99919.00;4994351;28;20041;-77
2024/03/14 07:12:43;;;;;;;8.40;4.40;;;;;;;8.01;100.00;99915.91;4991266;28;20478;-77
2024/03/14 07:15:08;;;;;;;8.25;4.63;;;;;;;8.09;100.00;99922.75;4994132;28;20042;-76
2024/03/14 07:17:37;;;;;;;7.75;4.20;;;;;;;8.16;100.00;99920.47;4996020;28;20034;-76
2024/03/14 07:20:09;;;;;;;7.22;4.40;;;;;;;8.21;100.00;99927.88;5005900;28;20125;-76
2024/03/14 07:22:39;;;;;;;7.28;3.88;;;;;;;8.30;100.00;99937.16;4962329;28;20038;-76
2024/03/14 07:25:08;;;;;;;9.13;4.53;;;;;;;8.36;100.00;99935.16;4987194;28;20037;-76
2024/03/14 07:27:34;;;;;;;6.65;4.00;;;;;;;8.42;100.00;99926.56;4965889;28;20034;-76
2024/03/14 07:30:00;;;;;;;8.57;4.00;;;;;;;8.47;100.00;99934.81;4953727;28;20035;-77
2024/03/14 07:32:26;;;;;;;7.05;3.67;;;;;;;8.54;100.00;99928.91;4995630;28;20026;-76
2024/03/14 07:34:52;;;;;;;6.57;3.70;;;;;;;8.62;100.00;99935.75;4977816;28;20546;-76
2024/03/14 07:37:23;;;;;;;7.68;4.00;;;;;;;8.70;100.00;99927.63;4974739;28;20040;-76
2024/03/14 07:39:49;;;;;;;9.65;4.53;;;;;;;8.78;100.00;99930.88;4978417;28;20033;-76
2024/03/14 07:42:14;;;;;;;8.15;3.92;;;;;;;8.88;100.00;99941.78;4990628;28;20092;-76
2024/03/14 07:44:45;;;;;;;9.52;4.40;;;;;;;8.98;100.00;99938.06;4984569;28;20038;-77
2024/03/14 07:47:19;;;;;;;5.70;4.00;;;;;;;9.07;100.00;99934.34;4972505;28;20505;-76
2024/03/14 07:49:49;;;;;;;7.75;4.50;;;;;;;9.17;100.00;99934.19;4997583;28;20101;-76
2024/03/14 07:52:17;;;;;;;8.73;4.20;;;;;;;9.22;100.00;99938.84;4988559;28;20479;-76
2024/03/14 07:54:45;;;;;;;9.95;4.22;;;;;;;9.29;100.00;99941.25;4988874;28;20030;-77
2024/03/14 07:57:15;;;;;;;10.32;4.22;;;;;;;9.36;100.00;99936.13;4965249;28;20031;-76
2024/03/14 07:59:44;;;;;;;6.00;3.63;;;;;;;9.40;100.00;99943.56;4981043;28;20109;-77
2024/03/14 08:02:12;;;;;;;6.90;3.85;;;;;;;9.47;100.00;99937.66;4988265;28;20589;-76
2024/03/14 08:04:39;;;;;;;7.28;4.22;;;;;;;9.49;100.00;99946.47;4951327;28;20027;-76
2024/03/14 08:07:10;;;;;;;6.82;3.78;;;;;;;9.54;100.00;99938.09;4969517;28;20218;-76
2024/03/14 08:09:42;;;;;;;7.68;3.92;;;;;;;9.60;100.00;99936.88;4991181;28;20029;-77
2024/03/14 08:12:09;;;;;;;8.88;4.70;;;;;;;9.64;100.00;99939.88;4981164;28;20076;-76
2024/03/14 08:14:34;;;;;;;8.80;4.45;;;;;;;9.71;100.00;99931.16;5010461;28;20101;-76
2024/03/14 08:17:01;;;;;;;7.47;4.30;;;;;;;9.75;100.00;99937.75;4997429;28;20053;-76
2024/03/14 08:19:28;;;;;;;7.85;4.32;;;;;;;9.81;100.00;99936.56;4977814;28;20046;-76
2024/03/14 08:21:56;;;;;;;9.20;4.10;;;;;;;9.84;100.00;99935.94;5013314;28;20044;-76
2024/03/14 08:24:26;;;;;;;7.40;3.83;;;;;;;9.88;100.00;99939.75;5016616;28;20552;-76
2024/03/14 08:26:52;;;;;;;6.07;3.95;;;;;;;9.94;100.00;99937.72;5005527;28;20109;-76
2024/03/14 08:29:17;;;;;;;8.15;3.90;;;;;;;9.98;100.00;99925.72;4977709;28;20026;-76
2024/03/14 08:31:43;;;;;;;7.15;4.43;;;;;;;10.07;100.00;99928.59;4995678;28;20041;-76
2024/03/14 08:34:09;;;;;;;8.10;3.88;;;;;;;10.15;100.00;99919.59;5010678;28;20753;-73
2024/03/14 08:36:40;;;;;;;6.72;3.80;;;;;;;10.21;100.00;99912.81;4996556;28;20037;-73
2024/03/14 08:39:06;;;;;;;7.88;3.85;;;;;;;10.32;100.00;99918.19;4980840;28;20084;-74
2024/03/14 08:41:32;;;;;;;6.60;4.32;;;;;;;10.39;100.00;99918.59;5006704;28;20074;-74
2024/03/14 08:43:58;;;;;;;10.45;4.88;;;;;;;10.50;100.00;99920.03;4980616;28;20041;-74
2024/03/14 08:46:23;;;;;;;7.72;4.50;;;;;;;10.57;100.00;99919.66;4982655;28;20061;-74
2024/03/14 08:48:49;;;;;;;12.25;4.28;;;;;;;10.66;100.00;99915.03;4987207;28;20041;-74
2024/03/14 08:51:14;;;;;;;8.52;4.30;;;;;;;10.75;100.00;99918.72;4980648;28;20022;-74
2024/03/14 08:56:24;;;;;;;5.82;4.03;;;;;;;10.87;100.00;99913.47;4982696;28;20113;-74
2024/03/14 08:58:56;;;;;;;7.30;4.18;;;;;;;10.95;100.00;99901.63;5009491;28;20065;-74
2024/03/14 09:01:24;;;;;;;6.80;4.43;;;;;;;11.03;100.00;99913.97;5010582;28;20049;-74
2024/03/14 09:03:50;;;;;;;6.97;4.07;;;;;;;11.12;100.00;99908.50;4975516;28;20030;-74
2024/03/14 09:06:15;;;;;;;10.20;4.22;;;;;;;11.19;100.00;99904.13;4992011;28;20072;-73
2024/03/14 09:08:41;;;;;;;6.40;3.88;;;;;;;11.28;100.00;99906.16;4980058;28;20030;-74
2024/03/14 09:11:07;;;;;;;6.03;4.00;;;;;;;11.34;100.00;99900.19;4996522;28;20042;-74
2024/03/14 09:13:34;;;;;;;9.55;3.83;;;;;;;11.47;100.00;99903.22;5008349;28;20058;-74
2024/03/14 09:16:00;;;;;;;8.65;3.60;;;;;;;11.56;100.00;99895.75;4998517;28;20022;-74
2024/03/14 09:18:26;;;;;;;8.43;3.42;;;;;;;11.67;100.00;99897.16;4996182;28;20385;-73
2024/03/14 09:20:55;;;;;;;6.32;3.33;;;;;;;11.80;100.00;99893.47;4948719;28;20030;-74
2024/03/14 09:23:23;;;;;;;8.10;3.45;;;;;;;11.91;100.00;99888.50;5007371;28;20482;-74
2024/03/14 09:25:49;;;;;;;5.85;3.50;;;;;;;12.05;100.00;99892.03;4964982;28;20026;-74
2024/03/14 09:28:14;;;;;;;6.68;3.53;;;;;;;12.16;100.00;99889.81;4995698;28;20529;-74
2024/03/14 09:30:42;;;;;;;5.50;3.38;;;;;;;12.29;100.00;99900.03;4976381;28;20467;-74
2024/03/14 09:33:08;;;;;;;5.93;3.45;;;;;;;12.42;100.00;99901.03;4996995;28;20535;-74
2024/03/14 09:35:33;;;;;;;5.35;3.22;;;;;;;12.52;100.00;99899.94;4996662;28;20108;-74
2024/03/14 09:37:59;;;;;;;8.85;3.80;;;;;;;12.64;100.00;99907.69;4986673;28;20046;-74
2024/03/14 09:40:24;;;;;;;4.90;2.72;;;;;;;12.73;100.00;99903.81;4997620;28;20037;-74
2024/03/14 09:42:56;;;;;;;5.82;2.97;;;;;;;12.85;100.00;99924.66;4988219;28;20039;-74
2024/03/14 09:45:23;;;;;;;8.38;3.17;;;;;;;12.92;100.00;99919.41;4974869;28;20026;-74
2024/03/14 09:47:49;;;;;;;9.15;4.03;;;;;;;13.02;100.00;99924.69;4997736;28;20048;-74
2024/03/14 09:50:18;;;;;;;6.38;3.17;;;;;;;13.12;100.00;99924.38;4996996;28;20030;-74
2024/03/14 09:52:44;;;;;;;6.68;3.38;;;;;;;13.21;100.00;99918.81;4995345;28;20109;-74
2024/03/14 09:55:11;;;;;;;6.10;2.92;;;;;;;13.32;100.00;99922.16;4963040;28;20065;-74
2024/03/14 09:57:37;;;;;;;9.00;4.15;;;;;;;13.41;100.00;99909.84;4988646;28;20045;-74
2024/03/14 10:00:12;;;;;;;7.15;3.13;;;;;;;13.52;100.00;99910.34;5001649;28;20480;-74
2024/03/14 10:02:40;;;;;;;4.53;3.10;;;;;;;13.62;100.00;99910.00;4970964;28;20387;-74
2024/03/14 10:05:11;;;;;;;7.32;3.67;;;;;;;13.74;100.00;99912.13;4963621;28;20065;-74
2024/03/14 10:07:39;;;;;;;11.10;3.78;;;;;;;13.83;100.00;99914.91;5007245;28;20030;-74
2024/03/14 10:10:06;;;;;;;7.30;3.90;;;;;;;13.93;100.00;99910.94;4995957;28;20038;-74
2024/03/14 10:12:32;;;;;;;9.38;3.65;;;;;;;14.00;100.00;99909.28;4963065;28;20101;-74
2024/03/14 10:15:01;;;;;;;7.53;3.13;;;;;;;14.07;100.00;99912.41;4978986;28;20038;-74
2024/03/14 10:17:31;;;;;;;6.93;3.65;;;;;;;14.17;100.00;99902.84;5007645;28;20101;-74
2024/03/14 10:20:08;;;;;;;8.60;3.45;;;;;;;14.23;100.00;99903.47;5011097;28;20382;-74
2024/03/14 10:22:33;;;;;;;8.02;3.75;;;;;;;14.31;100.00;99892.28;4991972;28;20115;-74
2024/03/14 10:25:04;;;;;;;7.60;3.38;;;;;;;14.37;100.00;99880.91;4989342;28;20064;-74
2024/03/14 10:27:29;;;;;;;6.72;3.60;;;;;;;14.45;100.00;99886.47;5001014;28;20065;-74
2024/03/14 10:29:56;;;;;;;8.02;3.53;;;;;;;14.56;100.00;99880.53;4990992;28;20537;-74
2024/03/14 10:32:22;;;;;;;6.60;2.90;;;;;;;14.66;100.00;99877.38;4959449;28;20026;-74
2024/03/14 10:34:48;;;;;;;7.95;3.58;;;;;;;14.75;100.00;99869.75;4962378;28;20038;-74
2024/03/14 10:37:15;;;;;;;6.25;3.55;;;;;;;14.86;100.00;99878.59;4963284;28;20525;-74
2024/03/14 10:39:49;;;;;;;8.20;4.03;;;;;;;15.03;100.00;99872.06;4973662;28;20496;-74
2024/03/14 10:42:15;;;;;;;7.32;3.60;;;;;;;15.11;100.00;99873.97;4996845;28;20394;-74
2024/03/14 10:44:41;;;;;;;8.07;3.45;;;;;;;15.21;100.00;99879.19;4965458;28;20026;-74
2024/03/14 10:47:06;;;;;;;7.38;3.55;;;;;;;15.36;100.00;99874.94;5013764;28;20025;-74
2024/03/14 10:49:33;;;;;;;7.32;3.67;;;;;;;15.51;100.00;99870.69;4981044;28;20025;-74
2024/03/14 10:52:00;;;;;;;5.85;3.22;;;;;;;15.63;100.00;99881.97;4981455;28;20488;-74
2024/03/14 10:54:26;;;;;;;6.60;2.78;;;;;;;15.76;100.00;99875.25;4981602;28;20022;-74
2024/03/14 10:56:52;;;;;;;8.50;3.28;;;;;;;15.91;100.00;99872.97;5013700;28;20513;-74
2024/03/14 10:59:17;;;;;;;5.78;2.35;;;;;;;16.04;100.00;99871.84;4971189;28;20038;-74
2024/03/14 11:01:55;;;;;;;8.90;3.20;;;;;;;16.20;100.00;99874.81;4945421;28;20045;-74
2024/03/14 11:04:21;;;;;;;6.53;3.13;;;;;;;16.37;100.00;99873.78;4962928;28;20026;-74
2024/03/14 11:06:47;;;;;;;9.10;3.03;;;;;;;16.51;100.00;99877.88;4977644;28;20033;-74
2024/03/14 11:09:13;;;;;;;5.93;3.20;;;;;;;16.63;100.00;99882.69;4961687;28;20030;-75
2024/03/14 11:11:39;;;;;;;5.35;2.90;;;;;;;16.74;100.00;99878.25;4977308;28;20030;-74
2024/03/14 11:14:07;;;;;;;7.47;3.28;;;;;;;16.85;100.00;99875.78;4994112;28;20034;-74
2024/03/14 11:16:33;;;;;;;10.68;2.90;;;;;;;16.90;100.00;99878.34;4993827;28;20586;-74
2024/03/14 11:19:00;;;;;;;6.63;2.95;;;;;;;17.04;100.00;99863.16;5010316;28;20039;-74
2024/03/14 11:21:33;;;;;;;8.10;3.15;;;;;;;17.14;100.00;99860.69;4995340;28;20037;-74
2024/03/14 11:24:05;;;;;;;5.43;3.20;;;;;;;17.27;100.00;99861.44;4993769;28;20027;-74
2024/03/14 11:26:30;;;;;;;4.90;2.65;;;;;;;17.40;100.00;99862.25;4993654;28;20078;-74